sensor_id;sensor_type;location;lat;lon;timestamp;pressure;altitude;pressure_sealevel;temperature;humidity
34205;BME280;20471;49.680;20.074;2023-05-06T00:00:08;97381.36;;;7.08;64.60
34205;BME280;20471;49.680;20.074;2023-05-06T00:02:58;97378.17;;;7.05;64.72
34205;BME280;20471;49.680;20.074;2023-05-06T00:05:27;97376.91;;;7.03;64.92
34205;BME280;20471;49.680;20.074;2023-05-06T00:07:55;97380.03;;;6.94;64.85
34205;BME280;20471;49.680;20.074;2023-05-06T00:10:23;97380.84;;;6.81;64.93
34205;BME280;20471;49.680;20.074;2023-05-06T00:12:51;97380.69;;;6.75;65.23
34205;BME280;20471;49.680;20.074;2023-05-06T00:15:20;97385.33;;;6.73;65.34
34205;BME280;20471;49.680;20.074;2023-05-06T00:17:48;97388.77;;;6.69;65.49
34205;BME280;20471;49.680;20.074;2023-05-06T00:20:16;97390.36;;;6.68;65.49
34205;BME280;20471;49.680;20.074;2023-05-06T00:22:44;97383.65;;;6.66;65.54
34205;BME280;20471;49.680;20.074;2023-05-06T00:25:12;97388.71;;;6.64;65.58
34205;BME280;20471;49.680;20.074;2023-05-06T00:27:40;97395.05;;;6.59;65.52
34205;BME280;20471;49.680;20.074;2023-05-06T00:30:09;97394.29;;;6.52;65.57
34205;BME280;20471;49.680;20.074;2023-05-06T00:32:37;97390.17;;;6.46;65.80
34205;BME280;20471;49.680;20.074;2023-05-06T00:35:06;97387.58;;;6.44;65.92
34205;BME280;20471;49.680;20.074;2023-05-06T00:37:34;97387.02;;;6.41;65.85
34205;BME280;20471;49.680;20.074;2023-05-06T00:40:02;97383.63;;;6.40;66.00
34205;BME280;20471;49.680;20.074;2023-05-06T00:42:31;97384.89;;;6.39;66.10
34205;BME280;20471;49.680;20.074;2023-05-06T00:45:00;97386.32;;;6.36;66.05
34205;BME280;20471;49.680;20.074;2023-05-06T00:47:28;97387.52;;;6.31;66.17
34205;BME280;20471;49.680;20.074;2023-05-06T00:49:56;97387.28;;;6.28;66.19
34205;BME280;20471;49.680;20.074;2023-05-06T00:52:24;97388.30;;;6.27;66.25
34205;BME280;20471;49.680;20.074;2023-05-06T00:54:53;97388.52;;;6.22;66.22
34205;BME280;20471;49.680;20.074;2023-05-06T00:57:21;97389.96;;;6.11;66.33
34205;BME280;20471;49.680;20.074;2023-05-06T00:59:50;97389.45;;;6.02;66.59
34205;BME280;20471;49.680;20.074;2023-05-06T01:02:18;97383.01;;;6.01;66.78
34205;BME280;20471;49.680;20.074;2023-05-06T01:04:46;97380.65;;;6.02;66.98
34205;BME280;20471;49.680;20.074;2023-05-06T01:07:39;97379.95;;;6.04;66.87
34205;BME280;20471;49.680;20.074;2023-05-06T01:12:56;97382.17;;;6.04;67.00
34205;BME280;20471;49.680;20.074;2023-05-06T01:18:00;97380.48;;;6.02;67.08
34205;BME280;20471;49.680;20.074;2023-05-06T01:20:30;97375.98;;;6.01;67.11
34205;BME280;20471;49.680;20.074;2023-05-06T01:23:00;97375.66;;;6.04;67.29
34205;BME280;20471;49.680;20.074;2023-05-06T01:25:28;97372.38;;;6.04;67.38
34205;BME280;20471;49.680;20.074;2023-05-06T01:27:59;97368.27;;;6.01;67.38
34205;BME280;20471;49.680;20.074;2023-05-06T01:30:34;97363.28;;;5.97;67.44
34205;BME280;20471;49.680;20.074;2023-05-06T01:33:15;97363.41;;;5.94;67.56
34205;BME280;20471;49.680;20.074;2023-05-06T01:36:07;97364.97;;;5.92;67.63
34205;BME280;20471;49.680;20.074;2023-05-06T01:41:16;97363.62;;;5.84;67.44
34205;BME280;20471;49.680;20.074;2023-05-06T01:43:46;97358.91;;;5.77;67.41
34205;BME280;20471;49.680;20.074;2023-05-06T01:46:18;97361.41;;;5.74;67.57
34205;BME280;20471;49.680;20.074;2023-05-06T01:48:49;97364.54;;;5.71;67.57
34205;BME280;20471;49.680;20.074;2023-05-06T01:51:20;97369.08;;;5.69;67.65
34205;BME280;20471;49.680;20.074;2023-05-06T01:53:49;97366.39;;;5.65;67.66
34205;BME280;20471;49.680;20.074;2023-05-06T01:56:17;97368.08;;;5.63;67.76
34205;BME280;20471;49.680;20.074;2023-05-06T01:58:45;97368.67;;;5.62;67.84
34205;BME280;20471;49.680;20.074;2023-05-06T02:01:13;97368.27;;;5.58;67.90
34205;BME280;20471;49.680;20.074;2023-05-06T02:03:41;97364.90;;;5.56;68.00
34205;BME280;20471;49.680;20.074;2023-05-06T02:06:09;97362.57;;;5.57;68.11
34205;BME280;20471;49.680;20.074;2023-05-06T02:08:38;97363.83;;;5.55;68.15
34205;BME280;20471;49.680;20.074;2023-05-06T02:11:06;97361.67;;;5.54;68.13
34205;BME280;20471;49.680;20.074;2023-05-06T02:13:35;97361.17;;;5.53;68.24
34205;BME280;20471;49.680;20.074;2023-05-06T02:16:03;97362.13;;;5.52;68.25
34205;BME280;20471;49.680;20.074;2023-05-06T02:18:31;97365.02;;;5.48;68.29
34205;BME280;20471;49.680;20.074;2023-05-06T02:20:59;97366.80;;;5.44;68.34
34205;BME280;20471;49.680;20.074;2023-05-06T02:23:28;97371.20;;;5.43;68.31
34205;BME280;20471;49.680;20.074;2023-05-06T02:25:56;97368.71;;;5.39;68.41
34205;BME280;20471;49.680;20.074;2023-05-06T02:28:25;97366.41;;;5.39;68.48
34205;BME280;20471;49.680;20.074;2023-05-06T02:30:56;97367.54;;;5.40;68.63
34205;BME280;20471;49.680;20.074;2023-05-06T02:33:25;97366.42;;;5.40;68.73
34205;BME280;20471;49.680;20.074;2023-05-06T02:35:53;97364.27;;;5.39;68.82
34205;BME280;20471;49.680;20.074;2023-05-06T02:38:21;97361.42;;;5.39;68.83
34205;BME280;20471;49.680;20.074;2023-05-06T02:40:49;97360.23;;;5.37;68.81
34205;BME280;20471;49.680;20.074;2023-05-06T02:43:17;97361.73;;;5.36;68.88
34205;BME280;20471;49.680;20.074;2023-05-06T02:45:45;97359.66;;;5.37;68.96
34205;BME280;20471;49.680;20.074;2023-05-06T02:48:13;97357.34;;;5.37;69.18
34205;BME280;20471;49.680;20.074;2023-05-06T02:50:41;97359.59;;;5.36;69.21
34205;BME280;20471;49.680;20.074;2023-05-06T02:53:10;97360.08;;;5.35;69.25
34205;BME280;20471;49.680;20.074;2023-05-06T02:55:38;97360.40;;;5.35;69.38
34205;BME280;20471;49.680;20.074;2023-05-06T02:58:06;97355.71;;;5.36;69.47
34205;BME280;20471;49.680;20.074;2023-05-06T03:00:34;97356.71;;;5.36;69.44
34205;BME280;20471;49.680;20.074;2023-05-06T03:03:03;97356.95;;;5.36;69.38
34205;BME280;20471;49.680;20.074;2023-05-06T03:05:31;97356.89;;;5.36;69.46
34205;BME280;20471;49.680;20.074;2023-05-06T03:07:58;97358.29;;;5.37;69.59
34205;BME280;20471;49.680;20.074;2023-05-06T03:10:27;97357.15;;;5.37;69.61
34205;BME280;20471;49.680;20.074;2023-05-06T03:12:55;97352.42;;;5.38;69.63
34205;BME280;20471;49.680;20.074;2023-05-06T03:15:24;97350.73;;;5.37;69.61
34205;BME280;20471;49.680;20.074;2023-05-06T03:17:52;97345.16;;;5.37;69.70
34205;BME280;20471;49.680;20.074;2023-05-06T03:20:20;97341.80;;;5.37;69.73
34205;BME280;20471;49.680;20.074;2023-05-06T03:22:48;97345.80;;;5.36;69.64
34205;BME280;20471;49.680;20.074;2023-05-06T03:25:16;97345.48;;;5.36;69.86
34205;BME280;20471;49.680;20.074;2023-05-06T03:27:44;97341.88;;;5.33;69.97
34205;BME280;20471;49.680;20.074;2023-05-06T03:30:12;97339.29;;;5.31;69.96
34205;BME280;20471;49.680;20.074;2023-05-06T03:32:41;97328.46;;;5.34;70.13
34205;BME280;20471;49.680;20.074;2023-05-06T03:35:09;97328.61;;;5.35;70.17
34205;BME280;20471;49.680;20.074;2023-05-06T03:37:37;97329.91;;;5.37;70.24
34205;BME280;20471;49.680;20.074;2023-05-06T03:40:06;97330.02;;;5.36;70.33
34205;BME280;20471;49.680;20.074;2023-05-06T03:42:34;97333.27;;;5.34;70.40
34205;BME280;20471;49.680;20.074;2023-05-06T03:45:03;97331.70;;;5.35;70.52
34205;BME280;20471;49.680;20.074;2023-05-06T03:47:32;97331.10;;;5.38;70.60
34205;BME280;20471;49.680;20.074;2023-05-06T03:50:00;97327.72;;;5.43;70.64
34205;BME280;20471;49.680;20.074;2023-05-06T03:52:28;97331.08;;;5.50;70.69
34205;BME280;20471;49.680;20.074;2023-05-06T03:54:56;97335.96;;;5.57;70.79
34205;BME280;20471;49.680;20.074;2023-05-06T03:57:24;97334.25;;;5.60;70.80
34205;BME280;20471;49.680;20.074;2023-05-06T03:59:53;97330.11;;;5.64;70.89
34205;BME280;20471;49.680;20.074;2023-05-06T04:02:21;97329.98;;;5.69;70.80
34205;BME280;20471;49.680;20.074;2023-05-06T04:04:49;97326.75;;;5.75;70.83
34205;BME280;20471;49.680;20.074;2023-05-06T04:07:17;97327.45;;;5.81;70.82
34205;BME280;20471;49.680;20.074;2023-05-06T04:09:45;97330.02;;;5.87;70.90
34205;BME280;20471;49.680;20.074;2023-05-06T04:12:14;97330.59;;;5.91;71.02
34205;BME280;20471;49.680;20.074;2023-05-06T04:14:42;97332.55;;;5.95;71.06
34205;BME280;20471;49.680;20.074;2023-05-06T04:17:10;97335.02;;;6.00;71.01
34205;BME280;20471;49.680;20.074;2023-05-06T04:19:38;97334.86;;;6.04;71.05
34205;BME280;20471;49.680;20.074;2023-05-06T04:22:06;97338.10;;;6.09;71.04
34205;BME280;20471;49.680;20.074;2023-05-06T04:24:34;97345.64;;;6.13;71.09
34205;BME280;20471;49.680;20.074;2023-05-06T04:27:02;97339.09;;;6.17;71.26
34205;BME280;20471;49.680;20.074;2023-05-06T04:29:30;97343.85;;;6.22;71.21
34205;BME280;20471;49.680;20.074;2023-05-06T04:31:59;97347.39;;;6.27;71.27
34205;BME280;20471;49.680;20.074;2023-05-06T04:34:28;97345.63;;;6.29;71.26
34205;BME280;20471;49.680;20.074;2023-05-06T04:36:56;97346.42;;;6.33;71.17
34205;BME280;20471;49.680;20.074;2023-05-06T04:39:24;97347.50;;;6.39;71.20
34205;BME280;20471;49.680;20.074;2023-05-06T04:41:53;97346.90;;;6.46;71.27
34205;BME280;20471;49.680;20.074;2023-05-06T04:44:20;97348.02;;;6.55;71.22
34205;BME280;20471;49.680;20.074;2023-05-06T04:46:49;97349.56;;;6.63;71.24
34205;BME280;20471;49.680;20.074;2023-05-06T04:49:17;97355.98;;;6.70;71.14
34205;BME280;20471;49.680;20.074;2023-05-06T04:51:45;97351.35;;;6.77;71.05
34205;BME280;20471;49.680;20.074;2023-05-06T04:54:13;97356.73;;;6.85;71.25
34205;BME280;20471;49.680;20.074;2023-05-06T04:56:41;97359.30;;;6.94;71.29
34205;BME280;20471;49.680;20.074;2023-05-06T04:59:09;97359.68;;;7.02;71.18
34205;BME280;20471;49.680;20.074;2023-05-06T05:01:37;97360.85;;;7.10;71.11
34205;BME280;20471;49.680;20.074;2023-05-06T05:04:05;97356.42;;;7.18;71.02
34205;BME280;20471;49.680;20.074;2023-05-06T05:06:34;97354.35;;;7.26;70.92
34205;BME280;20471;49.680;20.074;2023-05-06T05:09:02;97350.35;;;7.34;71.15
34205;BME280;20471;49.680;20.074;2023-05-06T05:11:30;97346.08;;;7.40;71.07
34205;BME280;20471;49.680;20.074;2023-05-06T05:13:58;97344.16;;;7.48;71.00
34205;BME280;20471;49.680;20.074;2023-05-06T05:16:26;97342.12;;;7.56;70.89
34205;BME280;20471;49.680;20.074;2023-05-06T05:18:55;97344.19;;;7.63;70.84
34205;BME280;20471;49.680;20.074;2023-05-06T05:21:23;97341.18;;;7.68;70.76
34205;BME280;20471;49.680;20.074;2023-05-06T05:23:51;97342.27;;;7.75;70.69
34205;BME280;20471;49.680;20.074;2023-05-06T05:26:19;97338.90;;;7.83;70.58
34205;BME280;20471;49.680;20.074;2023-05-06T05:28:47;97339.66;;;7.92;70.53
34205;BME280;20471;49.680;20.074;2023-05-06T05:31:15;97338.02;;;8.02;70.58
34205;BME280;20471;49.680;20.074;2023-05-06T05:33:43;97330.29;;;8.13;70.64
34205;BME280;20471;49.680;20.074;2023-05-06T05:36:11;97330.40;;;8.25;70.68
34205;BME280;20471;49.680;20.074;2023-05-06T05:38:40;97326.14;;;8.36;70.53
34205;BME280;20471;49.680;20.074;2023-05-06T05:41:09;97321.36;;;8.48;70.18
34205;BME280;20471;49.680;20.074;2023-05-06T05:43:37;97318.89;;;8.59;70.07
34205;BME280;20471;49.680;20.074;2023-05-06T05:46:05;97315.13;;;8.72;70.00
34205;BME280;20471;49.680;20.074;2023-05-06T05:48:33;97314.80;;;8.85;69.90
34205;BME280;20471;49.680;20.074;2023-05-06T05:51:01;97309.74;;;8.98;69.87
34205;BME280;20471;49.680;20.074;2023-05-06T05:53:29;97307.38;;;9.12;69.72
34205;BME280;20471;49.680;20.074;2023-05-06T05:55:58;97309.46;;;9.27;69.67
34205;BME280;20471;49.680;20.074;2023-05-06T05:58:26;97303.41;;;9.43;69.68
34205;BME280;20471;49.680;20.074;2023-05-06T06:00:54;97297.50;;;9.59;69.36
34205;BME280;20471;49.680;20.074;2023-05-06T06:03:22;97294.09;;;9.74;69.02
34205;BME280;20471;49.680;20.074;2023-05-06T06:05:50;97292.23;;;9.89;68.82
34205;BME280;20471;49.680;20.074;2023-05-06T06:08:20;97290.73;;;10.04;68.92
34205;BME280;20471;49.680;20.074;2023-05-06T06:10:48;97288.64;;;10.20;69.07
34205;BME280;20471;49.680;20.074;2023-05-06T06:13:17;97289.71;;;10.37;68.77
34205;BME280;20471;49.680;20.074;2023-05-06T06:15:45;97283.80;;;10.54;68.41
34205;BME280;20471;49.680;20.074;2023-05-06T06:18:13;97280.36;;;10.71;68.34
34205;BME280;20471;49.680;20.074;2023-05-06T06:20:41;97276.20;;;10.87;68.11
34205;BME280;20471;49.680;20.074;2023-05-06T06:23:09;97274.85;;;11.04;67.90
34205;BME280;20471;49.680;20.074;2023-05-06T06:25:38;97271.09;;;11.21;67.62
34205;BME280;20471;49.680;20.074;2023-05-06T06:28:06;97269.84;;;11.37;67.52
34205;BME280;20471;49.680;20.074;2023-05-06T06:30:34;97263.29;;;11.52;67.15
34205;BME280;20471;49.680;20.074;2023-05-06T06:33:02;97262.64;;;11.66;66.82
34205;BME280;20471;49.680;20.074;2023-05-06T06:35:30;97259.79;;;11.79;66.47
34205;BME280;20471;49.680;20.074;2023-05-06T06:37:59;97261.47;;;11.91;65.93
34205;BME280;20471;49.680;20.074;2023-05-06T06:40:28;97263.05;;;12.04;65.58
34205;BME280;20471;49.680;20.074;2023-05-06T06:42:56;97259.21;;;12.16;65.46
34205;BME280;20471;49.680;20.074;2023-05-06T06:45:24;97256.54;;;12.28;65.25
34205;BME280;20471;49.680;20.074;2023-05-06T06:47:52;97255.75;;;12.42;65.26
34205;BME280;20471;49.680;20.074;2023-05-06T06:50:20;97254.48;;;12.56;65.50
34205;BME280;20471;49.680;20.074;2023-05-06T06:52:49;97253.73;;;12.70;65.11
34205;BME280;20471;49.680;20.074;2023-05-06T06:55:17;97254.71;;;12.84;64.78
34205;BME280;20471;49.680;20.074;2023-05-06T06:57:45;97254.73;;;12.96;64.45
34205;BME280;20471;49.680;20.074;2023-05-06T07:00:13;97250.86;;;13.09;64.01
34205;BME280;20471;49.680;20.074;2023-05-06T07:02:42;97251.92;;;13.22;63.99
34205;BME280;20471;49.680;20.074;2023-05-06T07:05:10;97248.64;;;13.38;63.69
34205;BME280;20471;49.680;20.074;2023-05-06T07:07:38;97245.45;;;13.53;63.36
34205;BME280;20471;49.680;20.074;2023-05-06T07:10:07;97252.60;;;13.69;63.19
34205;BME280;20471;49.680;20.074;2023-05-06T07:12:35;97250.88;;;13.85;63.02
34205;BME280;20471;49.680;20.074;2023-05-06T07:15:04;97245.53;;;14.00;62.51
34205;BME280;20471;49.680;20.074;2023-05-06T07:17:32;97245.73;;;14.17;62.41
34205;BME280;20471;49.680;20.074;2023-05-06T07:20:00;97241.73;;;14.32;62.23
34205;BME280;20471;49.680;20.074;2023-05-06T07:22:28;97236.29;;;14.46;61.87
34205;BME280;20471;49.680;20.074;2023-05-06T07:24:57;97228.27;;;14.60;61.59
34205;BME280;20471;49.680;20.074;2023-05-06T07:27:25;97229.12;;;14.72;60.99
34205;BME280;20471;49.680;20.074;2023-05-06T07:29:55;97229.49;;;14.86;60.80
34205;BME280;20471;49.680;20.074;2023-05-06T07:32:23;97222.59;;;15.03;60.58
34205;BME280;20471;49.680;20.074;2023-05-06T07:34:52;97215.09;;;15.25;60.18
34205;BME280;20471;49.680;20.074;2023-05-06T07:37:20;97211.58;;;15.55;60.01
34205;BME280;20471;49.680;20.074;2023-05-06T07:39:48;97206.71;;;15.91;59.37
34205;BME280;20471;49.680;20.074;2023-05-06T07:42:16;97204.54;;;16.31;58.44
34205;BME280;20471;49.680;20.074;2023-05-06T07:44:44;97201.80;;;16.72;57.82
34205;BME280;20471;49.680;20.074;2023-05-06T07:47:24;97192.97;;;17.14;57.12
34205;BME280;20471;49.680;20.074;2023-05-06T07:49:53;97194.03;;;17.59;56.40
34205;BME280;20471;49.680;20.074;2023-05-06T07:52:22;97190.80;;;18.02;56.15
34205;BME280;20471;49.680;20.074;2023-05-06T07:54:52;97187.88;;;18.46;55.59
34205;BME280;20471;49.680;20.074;2023-05-06T07:57:20;97186.33;;;18.77;54.84
34205;BME280;20471;49.680;20.074;2023-05-06T07:59:50;97185.33;;;18.98;54.40
34205;BME280;20471;49.680;20.074;2023-05-06T08:02:18;97180.61;;;19.27;54.00
34205;BME280;20471;49.680;20.074;2023-05-06T08:04:46;97175.95;;;19.50;53.47
34205;BME280;20471;49.680;20.074;2023-05-06T08:07:14;97174.34;;;19.83;53.20
34205;BME280;20471;49.680;20.074;2023-05-06T08:09:43;97170.59;;;20.29;51.96
34205;BME280;20471;49.680;20.074;2023-05-06T08:12:11;97167.59;;;20.68;50.63
34205;BME280;20471;49.680;20.074;2023-05-06T08:14:41;97166.93;;;20.89;49.56
34205;BME280;20471;49.680;20.074;2023-05-06T08:17:09;97161.08;;;21.12;49.11
34205;BME280;20471;49.680;20.074;2023-05-06T08:19:37;97159.80;;;21.17;49.21
34205;BME280;20471;49.680;20.074;2023-05-06T08:22:05;97155.98;;;21.41;49.58
34205;BME280;20471;49.680;20.074;2023-05-06T08:24:33;97155.28;;;21.76;49.54
34205;BME280;20471;49.680;20.074;2023-05-06T08:27:01;97152.96;;;22.13;48.22
34205;BME280;20471;49.680;20.074;2023-05-06T08:29:30;97151.61;;;22.49;47.63
34205;BME280;20471;49.680;20.074;2023-05-06T08:31:58;97150.41;;;22.84;46.46
34205;BME280;20471;49.680;20.074;2023-05-06T08:34:27;97146.03;;;23.28;46.18
34205;BME280;20471;49.680;20.074;2023-05-06T08:36:55;97144.29;;;23.78;45.51
34205;BME280;20471;49.680;20.074;2023-05-06T08:39:23;97136.26;;;24.26;44.61
34205;BME280;20471;49.680;20.074;2023-05-06T08:41:52;97134.39;;;24.69;44.34
34205;BME280;20471;49.680;20.074;2023-05-06T08:44:23;97132.46;;;25.05;43.00
34205;BME280;20471;49.680;20.074;2023-05-06T08:46:51;97129.05;;;25.42;42.76
34205;BME280;20471;49.680;20.074;2023-05-06T08:49:20;97122.79;;;25.72;41.93
34205;BME280;20471;49.680;20.074;2023-05-06T08:51:50;97119.44;;;25.88;41.19
34205;BME280;20471;49.680;20.074;2023-05-06T08:54:18;97114.08;;;26.19;40.54
34205;BME280;20471;49.680;20.074;2023-05-06T08:56:52;97111.91;;;26.55;39.63
34205;BME280;20471;49.680;20.074;2023-05-06T08:59:24;97106.41;;;26.78;38.88
34205;BME280;20471;49.680;20.074;2023-05-06T09:01:52;97106.00;;;27.07;38.80
34205;BME280;20471;49.680;20.074;2023-05-06T09:04:20;97102.63;;;27.45;38.63
34205;BME280;20471;49.680;20.074;2023-05-06T09:06:48;97103.62;;;27.83;38.16
34205;BME280;20471;49.680;20.074;2023-05-06T09:09:17;97100.23;;;27.92;37.16
34205;BME280;20471;49.680;20.074;2023-05-06T09:11:47;97101.41;;;27.81;36.91
34205;BME280;20471;49.680;20.074;2023-05-06T09:14:20;97103.78;;;27.50;36.35
34205;BME280;20471;49.680;20.074;2023-05-06T09:16:50;97094.20;;;27.15;36.14
34205;BME280;20471;49.680;20.074;2023-05-06T09:19:20;97090.71;;;27.10;36.25
34205;BME280;20471;49.680;20.074;2023-05-06T09:21:50;97088.09;;;27.26;36.32
34205;BME280;20471;49.680;20.074;2023-05-06T09:24:19;97083.62;;;27.38;35.97
34205;BME280;20471;49.680;20.074;2023-05-06T09:26:47;97081.26;;;27.42;35.08
34205;BME280;20471;49.680;20.074;2023-05-06T09:29:16;97078.23;;;27.29;34.79
34205;BME280;20471;49.680;20.074;2023-05-06T09:31:45;97074.70;;;27.37;35.05
34205;BME280;20471;49.680;20.074;2023-05-06T09:34:14;97068.70;;;27.46;34.79
34205;BME280;20471;49.680;20.074;2023-05-06T09:36:43;97063.98;;;27.52;34.98
34205;BME280;20471;49.680;20.074;2023-05-06T09:39:11;97057.29;;;27.51;34.18
34205;BME280;20471;49.680;20.074;2023-05-06T09:41:39;97053.99;;;27.53;34.32
34205;BME280;20471;49.680;20.074;2023-05-06T09:44:10;97051.86;;;27.54;34.86
34205;BME280;20471;49.680;20.074;2023-05-06T09:46:38;97046.59;;;27.58;35.27
34205;BME280;20471;49.680;20.074;2023-05-06T09:49:06;97046.10;;;27.63;35.58
34205;BME280;20471;49.680;20.074;2023-05-06T09:51:35;97042.39;;;27.71;36.03
34205;BME280;20471;49.680;20.074;2023-05-06T09:54:04;97040.88;;;27.73;35.27
34205;BME280;20471;49.680;20.074;2023-05-06T09:56:33;97035.46;;;27.70;35.15
34205;BME280;20471;49.680;20.074;2023-05-06T09:59:01;97027.55;;;27.78;35.66
34205;BME280;20471;49.680;20.074;2023-05-06T10:01:32;97019.28;;;27.84;35.61
34205;BME280;20471;49.680;20.074;2023-05-06T10:04:04;97019.12;;;27.73;35.17
34205;BME280;20471;49.680;20.074;2023-05-06T10:06:35;97015.42;;;27.46;35.01
34205;BME280;20471;49.680;20.074;2023-05-06T10:09:06;97011.91;;;27.19;34.95
34205;BME280;20471;49.680;20.074;2023-05-06T10:11:35;97005.70;;;26.99;35.48
34205;BME280;20471;49.680;20.074;2023-05-06T10:14:04;97005.13;;;26.83;35.68
34205;BME280;20471;49.680;20.074;2023-05-06T10:16:33;97001.31;;;26.64;35.32
34205;BME280;20471;49.680;20.074;2023-05-06T10:19:03;96993.89;;;26.43;35.53
34205;BME280;20471;49.680;20.074;2023-05-06T10:21:35;96985.91;;;26.22;35.24
34205;BME280;20471;49.680;20.074;2023-05-06T10:24:07;96980.39;;;26.02;35.46
34205;BME280;20471;49.680;20.074;2023-05-06T10:26:38;96976.47;;;25.85;36.08
34205;BME280;20471;49.680;20.074;2023-05-06T10:29:08;96974.05;;;25.67;36.38
34205;BME280;20471;49.680;20.074;2023-05-06T10:31:43;96968.61;;;25.49;36.73
34205;BME280;20471;49.680;20.074;2023-05-06T10:34:11;96958.94;;;25.31;36.96
34205;BME280;20471;49.680;20.074;2023-05-06T10:36:41;96955.17;;;25.14;37.37
34205;BME280;20471;49.680;20.074;2023-05-06T10:39:11;96955.65;;;25.00;37.19
34205;BME280;20471;49.680;20.074;2023-05-06T10:41:40;96952.84;;;24.78;36.83
34205;BME280;20471;49.680;20.074;2023-05-06T10:44:08;96944.30;;;24.55;37.61
34205;BME280;20471;49.680;20.074;2023-05-06T10:46:56;96939.02;;;24.43;38.03
34205;BME280;20471;49.680;20.074;2023-05-06T10:49:25;96938.49;;;24.30;38.31
34205;BME280;20471;49.680;20.074;2023-05-06T10:52:11;96938.49;;;24.19;38.53
34205;BME280;20471;49.680;20.074;2023-05-06T10:54:47;96939.73;;;24.06;38.77
34205;BME280;20471;49.680;20.074;2023-05-06T10:57:16;96935.86;;;23.93;38.73
34205;BME280;20471;49.680;20.074;2023-05-06T10:59:47;96935.34;;;23.71;38.82
34205;BME280;20471;49.680;20.074;2023-05-06T11:02:17;96935.79;;;23.38;39.06
34205;BME280;20471;49.680;20.074;2023-05-06T11:04:51;96936.76;;;23.19;39.76
34205;BME280;20471;49.680;20.074;2023-05-06T11:07:26;96934.63;;;23.06;40.01
34205;BME280;20471;49.680;20.074;2023-05-06T11:09:59;96935.14;;;22.96;40.33
34205;BME280;20471;49.680;20.074;2023-05-06T11:12:44;96932.10;;;22.87;40.93
34205;BME280;20471;49.680;20.074;2023-05-06T11:26:09;96968.30;;;22.05;41.40
34205;BME280;20471;49.680;20.074;2023-05-06T11:28:39;96985.21;;;21.78;41.50
34205;BME280;20471;49.680;20.074;2023-05-06T11:31:11;97000.70;;;21.54;41.99
34205;BME280;20471;49.680;20.074;2023-05-06T11:33:48;97007.67;;;21.27;42.20
34205;BME280;20471;49.680;20.074;2023-05-06T11:36:19;97016.84;;;20.93;42.99
34205;BME280;20471;49.680;20.074;2023-05-06T11:38:51;97031.91;;;20.66;43.75
34205;BME280;20471;49.680;20.074;2023-05-06T11:41:21;97048.61;;;20.41;44.21
34205;BME280;20471;49.680;20.074;2023-05-06T11:43:52;97063.30;;;20.13;44.59
34205;BME280;20471;49.680;20.074;2023-05-06T11:46:21;97064.90;;;19.81;45.81
34205;BME280;20471;49.680;20.074;2023-05-06T11:48:50;97068.52;;;19.50;46.76
34205;BME280;20471;49.680;20.074;2023-05-06T11:51:22;97069.96;;;19.26;47.45
34205;BME280;20471;49.680;20.074;2023-05-06T11:54:07;97073.63;;;19.09;48.32
34205;BME280;20471;49.680;20.074;2023-05-06T11:56:54;97075.42;;;18.90;49.11
34205;BME280;20471;49.680;20.074;2023-05-06T11:59:31;97069.92;;;18.64;49.50
34205;BME280;20471;49.680;20.074;2023-05-06T12:02:02;97074.72;;;18.43;50.32
34205;BME280;20471;49.680;20.074;2023-05-06T12:07:10;97101.85;;;18.07;51.57
34205;BME280;20471;49.680;20.074;2023-05-06T12:09:41;97111.11;;;18.02;52.04
34205;BME280;20471;49.680;20.074;2023-05-06T12:12:11;97118.83;;;17.94;52.86
34205;BME280;20471;49.680;20.074;2023-05-06T12:14:42;97124.11;;;17.73;53.39
34205;BME280;20471;49.680;20.074;2023-05-06T12:17:12;97121.61;;;17.39;54.87
34205;BME280;20471;49.680;20.074;2023-05-06T12:19:41;97126.30;;;17.19;56.28
34205;BME280;20471;49.680;20.074;2023-05-06T12:22:16;97130.86;;;17.10;56.79
34205;BME280;20471;49.680;20.074;2023-05-06T12:24:46;97131.80;;;17.05;57.25
34205;BME280;20471;49.680;20.074;2023-05-06T12:27:34;97134.45;;;17.01;57.75
34205;BME280;20471;49.680;20.074;2023-05-06T12:30:03;97133.27;;;17.03;58.18
34205;BME280;20471;49.680;20.074;2023-05-06T12:32:34;97133.15;;;17.05;58.19
34205;BME280;20471;49.680;20.074;2023-05-06T12:35:02;97129.92;;;17.03;58.67
34205;BME280;20471;49.680;20.074;2023-05-06T12:37:33;97129.38;;;16.96;59.02
34205;BME280;20471;49.680;20.074;2023-05-06T12:40:01;97131.52;;;16.87;59.42
34205;BME280;20471;49.680;20.074;2023-05-06T12:42:29;97130.25;;;16.80;60.20
34205;BME280;20471;49.680;20.074;2023-05-06T12:44:57;97134.66;;;16.73;60.50
34205;BME280;20471;49.680;20.074;2023-05-06T12:47:51;97132.23;;;16.70;60.41
34205;BME280;20471;49.680;20.074;2023-05-06T12:50:41;97128.23;;;16.68;60.52
34205;BME280;20471;49.680;20.074;2023-05-06T12:53:11;97126.90;;;16.65;61.08
34205;BME280;20471;49.680;20.074;2023-05-06T12:55:39;97120.38;;;16.62;61.87
34205;BME280;20471;49.680;20.074;2023-05-06T12:58:15;97116.86;;;16.63;62.19
34205;BME280;20471;49.680;20.074;2023-05-06T13:00:44;97107.69;;;16.63;62.41
34205;BME280;20471;49.680;20.074;2023-05-06T13:03:12;97099.08;;;16.61;62.55
34205;BME280;20471;49.680;20.074;2023-05-06T13:05:41;97100.41;;;16.62;62.66
34205;BME280;20471;49.680;20.074;2023-05-06T13:08:09;97098.48;;;16.60;62.95
34205;BME280;20471;49.680;20.074;2023-05-06T13:10:37;97097.69;;;16.58;63.14
34205;BME280;20471;49.680;20.074;2023-05-06T13:13:05;97099.61;;;16.54;63.27
34205;BME280;20471;49.680;20.074;2023-05-06T13:15:33;97103.13;;;16.51;63.50
34205;BME280;20471;49.680;20.074;2023-05-06T13:18:02;97103.45;;;16.47;63.77
34205;BME280;20471;49.680;20.074;2023-05-06T13:20:31;97102.30;;;16.42;63.85
34205;BME280;20471;49.680;20.074;2023-05-06T13:22:59;97101.19;;;16.39;64.08
34205;BME280;20471;49.680;20.074;2023-05-06T13:25:27;97099.05;;;16.33;64.15
34205;BME280;20471;49.680;20.074;2023-05-06T13:27:55;97096.67;;;16.25;64.27